createdAt,value
2022-08-01T00:00:19.174Z,5.43
2022-08-01T00:01:09.036Z,5.90
2022-08-01T00:01:40.404Z,6.63
2022-08-01T00:02:11.884Z,4.57
2022-08-01T00:02:43.649Z,5.47
2022-08-01T00:03:15.247Z,7.05
2022-08-01T00:03:46.615Z,5.00
2022-08-01T00:04:18.198Z,5.53
2022-08-01T00:04:49.618Z,5.18
2022-08-01T00:05:20.984Z,5.40
2022-08-01T00:05:52.401Z,4.63
2022-08-01T00:06:23.884Z,5.17
2022-08-01T00:06:55.277Z,4.88
2022-08-01T00:07:27.031Z,5.20
2022-08-01T00:07:58.677Z,6.25
2022-08-01T00:08:30.004Z,4.97
2022-08-01T00:09:23.780Z,4.93
2022-08-01T00:09:55.932Z,4.30
2022-08-01T00:10:27.578Z,4.88
2022-08-01T00:11:02.558Z,5.57
2022-08-01T00:11:34.275Z,4.55
2022-08-01T00:12:05.926Z,4.50
2022-08-01T00:12:37.586Z,5.28
2022-08-01T00:13:08.996Z,5.20
2022-08-01T00:13:42.038Z,4.78
2022-08-01T00:14:13.394Z,4.55
2022-08-01T00:15:03.384Z,4.75
2022-08-01T00:15:34.925Z,4.47
2022-08-01T00:16:06.385Z,4.45
2022-08-01T00:16:38.453Z,5.22
2022-08-01T00:17:09.831Z,4.28
2022-08-01T00:17:42.216Z,5.13
2022-08-01T00:18:13.561Z,5.55
2022-08-01T00:18:45.064Z,4.82
2022-08-01T00:19:16.832Z,5.28
2022-08-01T00:19:48.416Z,8.73
2022-08-01T00:20:19.870Z,4.88
2022-08-01T00:20:51.288Z,4.47
2022-08-01T00:21:22.763Z,4.85
2022-08-01T00:21:54.152Z,5.07
2022-08-01T00:22:25.671Z,4.40
2022-08-01T00:22:57.034Z,4.70
2022-08-01T00:23:28.684Z,5.65
2022-08-01T00:24:00.223Z,3.97
2022-08-01T00:24:31.620Z,6.90
2022-08-01T00:25:04.473Z,4.30
2022-08-01T00:25:35.868Z,4.90
2022-08-01T00:26:07.223Z,5.88
2022-08-01T00:26:38.589Z,4.28
2022-08-01T00:27:10.002Z,8.10
2022-08-01T00:27:41.415Z,4.13
2022-08-01T00:28:14.394Z,4.07
2022-08-01T00:28:45.856Z,4.07
2022-08-01T00:30:12.120Z,5.20
2022-08-01T00:30:27.113Z,4.47
2022-08-01T00:30:59.125Z,4.35
2022-08-01T00:31:30.652Z,4.60
2022-08-01T00:32:20.854Z,4.82
2022-08-01T00:33:10.871Z,5.13
2022-08-01T00:34:00.691Z,4.88
2022-08-01T00:34:32.055Z,4.40
2022-08-01T00:35:03.645Z,3.93
2022-08-01T00:35:35.184Z,5.22
2022-08-01T00:36:06.585Z,5.65
2022-08-01T00:36:38.060Z,5.28
2022-08-01T00:37:58.360Z,3.92
2022-08-01T00:38:29.762Z,4.78
2022-08-01T00:39:01.111Z,4.47
2022-08-01T00:39:33.990Z,5.53
2022-08-01T00:40:06.349Z,5.55
2022-08-01T00:40:38.105Z,3.93
2022-08-01T00:41:09.540Z,3.72
2022-08-01T00:41:40.884Z,5.28
2022-08-01T00:42:13.413Z,5.97
2022-08-01T00:43:52.520Z,3.83
2022-08-01T00:44:23.895Z,4.47
2022-08-01T00:44:55.275Z,7.57
2022-08-01T00:45:26.944Z,4.95
2022-08-01T00:45:59.210Z,4.18
2022-08-01T00:46:30.617Z,3.43
2022-08-01T00:47:03.201Z,3.58
2022-08-01T00:47:34.561Z,5.43
2022-08-01T00:48:06.149Z,4.22
2022-08-01T00:48:37.864Z,5.68
2022-08-01T00:49:10.424Z,6.35
2022-08-01T00:49:42.887Z,3.42
2022-08-01T00:50:14.488Z,4.10
2022-08-01T00:50:46.574Z,4.28
2022-08-01T00:51:18.323Z,4.07
2022-08-01T00:51:49.851Z,5.10
2022-08-01T00:52:21.444Z,3.88
2022-08-01T00:52:52.888Z,6.28
2022-08-01T00:53:24.780Z,5.60
2022-08-01T00:53:57.893Z,5.07
2022-08-01T00:54:30.075Z,3.78
2022-08-01T00:55:02.022Z,3.97
2022-08-01T00:55:33.557Z,4.10
2022-08-01T00:56:05.498Z,4.38
2022-08-01T00:56:36.891Z,4.47
2022-08-01T00:57:10.108Z,4.07
2022-08-01T00:58:04.675Z,3.72
2022-08-01T00:58:34.455Z,3.83
2022-08-01T00:59:06.954Z,4.15
2022-08-01T00:59:41.435Z,4.35
2022-08-01T01:00:13.581Z,4.47
2022-08-01T01:00:52.779Z,6.97
2022-08-01T01:01:26.012Z,4.10
2022-08-01T01:02:15.288Z,4.00
2022-08-01T01:02:47.411Z,5.00
2022-08-01T01:03:19.293Z,3.90
2022-08-01T01:04:00.083Z,5.70
2022-08-01T01:04:31.630Z,4.97
2022-08-01T01:05:03.947Z,5.38
2022-08-01T01:05:46.221Z,5.43
2022-08-01T01:06:42.988Z,4.50
2022-08-01T01:07:30.173Z,4.32
2022-08-01T01:08:07.181Z,5.38
2022-08-01T01:08:55.849Z,5.47
2022-08-01T01:09:40.671Z,5.10
2022-08-01T01:10:55.312Z,5.50
2022-08-01T01:11:32.944Z,6.03
2022-08-01T01:12:17.836Z,6.00
2022-08-01T01:13:11.929Z,6.60
2022-08-01T01:13:53.403Z,5.97
2022-08-01T01:14:34.429Z,5.18
2022-08-01T01:15:10.918Z,4.05
2022-08-01T01:15:52.099Z,4.70
2022-08-01T01:16:24.358Z,6.93
2022-08-01T01:16:57.856Z,5.10
2022-08-01T01:17:50.177Z,5.87
2022-08-01T01:19:06.140Z,4.90
2022-08-01T01:19:42.979Z,6.30
2022-08-01T01:20:15.901Z,4.70
2022-08-01T01:21:02.126Z,4.97
2022-08-01T01:22:02.334Z,4.38
2022-08-01T01:22:59.898Z,6.13
2022-08-01T01:23:55.803Z,5.20
2022-08-01T01:25:04.529Z,5.15
2022-08-01T01:25:57.471Z,8.43
2022-08-01T01:27:04.788Z,4.47
2022-08-01T01:28:10.063Z,4.30
2022-08-01T01:29:19.111Z,5.28
2022-08-01T01:30:15.462Z,4.70
2022-08-01T01:31:45.605Z,4.75
2022-08-01T01:32:22.034Z,4.28
2022-08-01T01:33:06.564Z,6.40
2022-08-01T01:33:47.403Z,6.72
2022-08-01T01:34:21.371Z,4.85
2022-08-01T01:34:55.776Z,6.93
2022-08-01T01:35:30.935Z,7.13
2022-08-01T01:36:11.605Z,6.70
2022-08-01T01:36:44.801Z,5.60
2022-08-01T01:37:19.685Z,5.10
2022-08-01T01:38:16.297Z,6.55
2022-08-01T01:38:49.113Z,5.80
2022-08-01T01:39:22.437Z,5.53
2022-08-01T01:39:55.495Z,5.72
2022-08-01T01:40:28.601Z,7.47
2022-08-01T01:41:03.335Z,7.03
2022-08-01T01:41:37.889Z,4.82
2022-08-01T01:43:18.945Z,6.72
2022-08-01T01:43:51.561Z,6.22
2022-08-01T01:44:23.144Z,6.95
2022-08-01T01:44:55.992Z,6.28
2022-08-01T01:45:46.510Z,5.47
2022-08-01T01:46:23.497Z,5.15
2022-08-01T01:46:57.300Z,5.75
2022-08-01T01:47:29.380Z,6.83
2022-08-01T01:48:02.624Z,5.60
2022-08-01T01:48:36.156Z,6.68
2022-08-01T01:49:11.262Z,8.18
2022-08-01T01:49:46.192Z,6.63
2022-08-01T01:50:21.764Z,7.47
2022-08-01T01:51:12.980Z,5.78
2022-08-01T01:51:54.211Z,5.80
2022-08-01T01:52:35.651Z,5.53
2022-08-01T01:53:07.944Z,8.13
2022-08-01T01:53:49.026Z,5.07
2022-08-01T01:54:21.301Z,5.68
2022-08-01T01:54:55.140Z,6.30
2022-08-01T01:55:27.327Z,8.55
2022-08-01T01:56:00.769Z,5.72
2022-08-01T01:56:33.348Z,6.78
2022-08-01T01:57:07.524Z,5.15
2022-08-01T01:57:41.789Z,7.05
2022-08-01T01:58:15.710Z,5.60
2022-08-01T01:58:51.202Z,6.18
2022-08-01T01:59:26.884Z,6.67
2022-08-01T01:59:59.444Z,6.57
2022-08-01T02:00:32.304Z,6.50
2022-08-01T02:01:04.608Z,5.55
2022-08-01T02:02:04.917Z,6.53
2022-08-01T02:02:38.417Z,5.28
2022-08-01T02:03:12.408Z,5.93
2022-08-01T02:03:44.791Z,4.65
2022-08-01T02:04:17.714Z,5.72
2022-08-01T02:04:49.683Z,6.35
2022-08-01T02:05:21.953Z,5.63
2022-08-01T02:06:13.236Z,5.15
2022-08-01T02:06:47.688Z,5.40
2022-08-01T02:07:23.537Z,6.63
2022-08-01T02:07:59.644Z,6.47
2022-08-01T02:08:32.365Z,4.72
2022-08-01T02:09:05.460Z,7.95
2022-08-01T02:09:56.794Z,6.20
2022-08-01T02:10:30.788Z,7.60
2022-08-01T02:11:19.298Z,4.93
2022-08-01T02:12:08.013Z,5.30
2022-08-01T02:12:46.487Z,7.38
2022-08-01T02:13:18.492Z,5.93
2022-08-01T02:13:59.994Z,6.30
2022-08-01T02:14:36.073Z,4.78
2022-08-01T02:15:08.283Z,6.28
2022-08-01T02:15:59.150Z,5.70
2022-08-01T02:16:35.724Z,5.13
2022-08-01T02:17:27.696Z,5.05
2022-08-01T02:18:00.441Z,5.47
2022-08-01T02:18:33.259Z,5.20
2022-08-01T02:19:05.025Z,4.65
2022-08-01T02:19:38.185Z,6.45
2022-08-01T02:20:31.024Z,4.60
2022-08-01T02:21:09.284Z,5.60
2022-08-01T02:21:47.211Z,4.75
2022-08-01T02:22:27.093Z,6.18
2022-08-01T02:23:07.614Z,6.18
2022-08-01T02:23:41.210Z,7.95
2022-08-01T02:24:43.450Z,6.32
2022-08-01T02:25:30.014Z,7.17
2022-08-01T02:26:10.359Z,5.13
2022-08-01T02:26:47.725Z,5.80
2022-08-01T02:27:27.009Z,4.60
2022-08-01T02:29:25.892Z,5.03
2022-08-01T02:30:06.315Z,6.35
2022-08-01T02:30:41.993Z,5.45
2022-08-01T02:31:17.962Z,5.47
2022-08-01T02:32:08.115Z,5.32
2022-08-01T02:32:45.201Z,5.47
2022-08-01T02:33:19.617Z,5.22
2022-08-01T02:34:10.309Z,4.57
2022-08-01T02:34:44.291Z,4.97
2022-08-01T02:35:24.155Z,5.22
2022-08-01T02:36:32.564Z,6.85
2022-08-01T02:36:53.855Z,4.78
2022-08-01T02:37:27.659Z,5.78
2022-08-01T02:38:02.145Z,5.45
2022-08-01T02:38:38.519Z,5.05
2022-08-01T02:39:14.005Z,4.20
2022-08-01T02:39:52.647Z,5.72
2022-08-01T02:40:25.034Z,6.45
2022-08-01T02:41:00.201Z,4.40
2022-08-01T02:41:36.923Z,5.00
2022-08-01T02:42:12.265Z,5.45
2022-08-01T02:42:48.434Z,4.88
2022-08-01T02:43:22.509Z,7.68
2022-08-01T02:43:59.732Z,4.15
2022-08-01T02:44:35.838Z,4.32
2022-08-01T02:45:09.519Z,5.27
2022-08-01T02:45:46.345Z,5.07
2022-08-01T02:46:23.445Z,5.63
2022-08-01T02:47:03.084Z,5.32
2022-08-01T02:47:36.912Z,4.22
2022-08-01T02:48:13.663Z,6.18
2022-08-01T02:49:05.515Z,5.53
2022-08-01T02:49:42.854Z,5.60
2022-08-01T02:50:15.529Z,6.78
2022-08-01T02:50:50.555Z,4.40
2022-08-01T02:51:25.634Z,5.23
2022-08-01T02:52:00.078Z,4.40
2022-08-01T02:52:32.829Z,5.72
2022-08-01T02:53:07.102Z,5.72
2022-08-01T02:53:44.705Z,5.07
2022-08-01T02:54:36.975Z,4.40
2022-08-01T02:55:11.018Z,5.35
2022-08-01T02:55:45.921Z,6.18
2022-08-01T02:56:19.889Z,5.28
2022-08-01T02:56:53.492Z,5.30
2022-08-01T02:57:52.290Z,5.77
2022-08-01T02:58:29.199Z,7.35
2022-08-01T02:59:04.331Z,5.30
2022-08-01T02:59:41.211Z,5.82
2022-08-01T03:00:13.137Z,6.78
2022-08-01T03:00:45.949Z,6.57
2022-08-01T03:01:21.702Z,5.00
2022-08-01T03:01:56.594Z,5.35
2022-08-01T03:02:30.056Z,5.82
2022-08-01T03:03:04.234Z,7.82
2022-08-01T03:03:36.401Z,6.53
2022-08-01T03:04:59.415Z,5.93
2022-08-01T03:05:49.847Z,5.68
2022-08-01T03:06:21.847Z,5.28
2022-08-01T03:06:55.784Z,5.93
2022-08-01T03:07:34.445Z,5.63
2022-08-01T03:08:11.968Z,6.13
2022-08-01T03:08:48.199Z,6.35
2022-08-01T03:09:20.528Z,4.78
2022-08-01T03:09:53.112Z,5.97
2022-08-01T03:10:27.820Z,7.60
2022-08-01T03:11:01.545Z,6.00
2022-08-01T03:11:54.112Z,6.22
2022-08-01T03:12:30.573Z,6.28
2022-08-01T03:13:04.619Z,5.90
2022-08-01T03:13:36.576Z,8.18
2022-08-01T03:14:11.160Z,7.28
2022-08-01T03:14:45.587Z,6.07
2022-08-01T03:15:20.618Z,7.85
2022-08-01T03:15:54.865Z,5.53
2022-08-01T03:16:27.893Z,7.65
2022-08-01T03:17:01.845Z,5.35
2022-08-01T03:17:36.488Z,5.57
2022-08-01T03:18:10.241Z,5.47
2022-08-01T03:18:45.784Z,5.97
2022-08-01T03:19:20.054Z,7.13
2022-08-01T03:19:53.457Z,6.35
2022-08-01T03:20:27.397Z,7.43
2022-08-01T03:21:00.872Z,5.93
2022-08-01T03:21:35.482Z,5.37
2022-08-01T03:22:10.466Z,7.53
2022-08-01T03:22:45.748Z,6.88
2022-08-01T03:23:18.223Z,5.90
2022-08-01T03:23:55.277Z,7.13
2022-08-01T03:24:28.244Z,5.90
2022-08-01T03:25:00.586Z,6.97
2022-08-01T03:25:33.613Z,5.75
2022-08-01T03:26:06.973Z,6.68
2022-08-01T03:26:39.598Z,6.15
2022-08-01T03:27:12.853Z,5.80
2022-08-01T03:27:48.960Z,8.07
2022-08-01T03:28:23.045Z,6.25
2022-08-01T03:29:08.639Z,7.22
2022-08-01T03:29:41.602Z,10.18
2022-08-01T03:30:14.415Z,6.32
2022-08-01T03:31:04.436Z,5.93
2022-08-01T03:31:37.293Z,5.93
2022-08-01T03:32:11.590Z,5.97
2022-08-01T03:33:02.695Z,8.75
2022-08-01T03:33:34.560Z,5.80
2022-08-01T03:34:07.088Z,6.38
2022-08-01T03:34:56.894Z,6.97
2022-08-01T03:35:33.532Z,6.00
2022-08-01T03:36:10.375Z,8.30
2022-08-01T03:37:04.824Z,5.40
2022-08-01T03:38:14.283Z,6.30
2022-08-01T03:39:34.756Z,6.18
2022-08-01T03:40:27.804Z,6.30
2022-08-01T03:41:16.828Z,4.87
2022-08-01T03:41:56.953Z,5.32
2022-08-01T03:42:38.585Z,5.85
2022-08-01T03:43:18.100Z,7.55
2022-08-01T03:43:55.984Z,5.25
2022-08-01T03:44:34.081Z,5.75
2022-08-01T03:45:13.365Z,5.38
2022-08-01T03:45:51.236Z,6.00
2022-08-01T03:46:29.744Z,4.85
2022-08-01T03:47:06.440Z,4.78
2022-08-01T03:47:40.848Z,5.00
2022-08-01T03:48:19.697Z,5.43
2022-08-01T03:48:55.414Z,6.53
2022-08-01T03:49:33.797Z,5.35
2022-08-01T03:50:12.260Z,5.20
2022-08-01T03:50:47.986Z,5.03
2022-08-01T03:51:21.592Z,6.28
2022-08-01T03:52:12.196Z,4.70
2022-08-01T03:52:47.407Z,6.13
2022-08-01T03:53:24.108Z,5.25
2022-08-01T03:53:56.888Z,4.90
2022-08-01T03:54:34.553Z,4.72
2022-08-01T03:55:08.604Z,5.82
2022-08-01T03:55:42.148Z,4.85
2022-08-01T03:57:07.763Z,5.55
2022-08-01T03:57:41.126Z,5.90
2022-08-01T03:58:13.886Z,4.80
2022-08-01T03:59:04.545Z,7.80
2022-08-01T03:59:37.514Z,5.18
2022-08-01T04:00:10.209Z,4.90
2022-08-01T04:01:00.661Z,7.38
2022-08-01T04:01:33.081Z,5.75
2022-08-01T04:02:05.791Z,5.20
2022-08-01T04:02:38.639Z,6.47
2022-08-01T04:03:11.622Z,6.05
2022-08-01T04:03:45.094Z,5.28
2022-08-01T04:04:16.777Z,6.75
2022-08-01T04:04:48.417Z,5.80
2022-08-01T04:05:20.075Z,6.75
2022-08-01T04:05:51.528Z,6.17
2022-08-01T04:06:23.472Z,5.65
2022-08-01T04:06:55.255Z,6.38
2022-08-01T04:07:56.388Z,5.75
2022-08-01T04:08:41.246Z,4.90
2022-08-01T04:09:15.696Z,5.10
2022-08-01T04:09:47.209Z,5.57
2022-08-01T04:10:18.550Z,5.55
2022-08-01T04:11:08.696Z,6.70
2022-08-01T04:11:40.804Z,5.72
2022-08-01T04:12:12.660Z,6.77
2022-08-01T04:12:44.116Z,5.18
2022-08-01T04:13:15.593Z,4.85
2022-08-01T04:13:46.982Z,5.95
2022-08-01T04:14:18.575Z,6.93
2022-08-01T04:15:39.592Z,4.60
2022-08-01T04:16:10.938Z,4.93
2022-08-01T04:16:42.491Z,5.55
2022-08-01T04:17:32.695Z,6.43
2022-08-01T04:18:04.092Z,5.40
2022-08-01T04:18:35.457Z,5.05
2022-08-01T04:19:09.692Z,5.00
2022-08-01T04:19:41.311Z,6.95
2022-08-01T04:20:13.698Z,7.40
2022-08-01T04:20:47.489Z,4.80
2022-08-01T04:21:23.474Z,8.05
2022-08-01T04:21:55.231Z,5.38
2022-08-01T04:22:27.697Z,7.18
2022-08-01T04:22:59.041Z,5.72
2022-08-01T04:23:51.659Z,7.13
2022-08-01T04:24:27.092Z,6.03
2022-08-01T04:25:01.029Z,6.55
2022-08-01T04:26:26.636Z,5.45
2022-08-01T04:27:01.136Z,5.30
2022-08-01T04:27:50.553Z,5.57
2022-08-01T04:28:24.391Z,5.60
2022-08-01T04:28:56.468Z,5.32
2022-08-01T04:29:30.877Z,5.70
2022-08-01T04:30:02.618Z,6.63
2022-08-01T04:30:36.796Z,6.20
2022-08-01T04:31:10.702Z,7.40
2022-08-01T04:31:46.480Z,7.28
2022-08-01T04:32:21.923Z,5.82
2022-08-01T04:32:56.271Z,7.22
2022-08-01T04:33:31.050Z,4.93
2022-08-01T04:34:05.844Z,6.18
2022-08-01T04:34:40.947Z,4.85
2022-08-01T04:35:23.006Z,3.90
2022-08-01T04:36:11.482Z,5.77
2022-08-01T04:36:43.554Z,8.80
2022-08-01T04:37:19.325Z,8.60
2022-08-01T04:37:51.968Z,8.02
2022-08-01T04:38:28.368Z,5.50
2022-08-01T04:39:02.500Z,6.38
2022-08-01T04:39:50.661Z,4.70
2022-08-01T04:40:22.952Z,4.95
2022-08-01T04:40:55.411Z,4.93
2022-08-01T04:41:27.281Z,5.63
2022-08-01T04:42:01.055Z,3.87
2022-08-01T04:42:34.199Z,4.07
2022-08-01T04:43:06.743Z,3.83
2022-08-01T04:43:38.916Z,6.40
2022-08-01T04:44:10.424Z,4.13
2022-08-01T04:44:42.329Z,4.53
2022-08-01T04:45:15.650Z,2.28
2022-08-01T04:46:07.131Z,5.80
2022-08-01T04:46:39.298Z,4.45
2022-08-01T04:47:12.213Z,3.55
2022-08-01T04:47:43.917Z,2.73
2022-08-01T04:48:20.245Z,2.50
2022-08-01T04:48:55.814Z,2.25
2022-08-01T04:49:27.618Z,2.63
2022-08-01T04:49:59.953Z,3.22
2022-08-01T04:50:50.165Z,2.08
2022-08-01T04:51:23.148Z,2.00
2022-08-01T04:51:58.884Z,3.25
2022-08-01T04:52:35.608Z,2.42
2022-08-01T04:53:13.808Z,3.45
2022-08-01T04:53:46.801Z,1.30
2022-08-01T04:54:18.662Z,2.58
2022-08-01T04:54:50.068Z,1.77
2022-08-01T04:55:21.440Z,2.35
2022-08-01T04:55:53.881Z,1.67
2022-08-01T04:56:25.251Z,3.00
2022-08-01T04:58:05.265Z,4.43
2022-08-01T04:58:36.682Z,1.85
2022-08-01T04:59:27.135Z,1.63
2022-08-01T04:59:58.457Z,2.00
2022-08-01T05:00:30.137Z,1.92
2022-08-01T05:01:02.353Z,1.75
2022-08-01T05:01:33.736Z,3.95
2022-08-01T05:02:05.575Z,3.55
2022-08-01T05:02:37.841Z,2.08
2022-08-01T05:03:27.904Z,1.42
2022-08-01T05:03:59.270Z,1.30
2022-08-01T05:04:30.616Z,1.05
2022-08-01T05:05:01.974Z,3.70
2022-08-01T05:06:22.594Z,2.65
2022-08-01T05:06:54.664Z,0.93
2022-08-01T05:07:26.136Z,4.60
2022-08-01T05:07:57.543Z,1.55
2022-08-01T05:08:28.925Z,2.70
2022-08-01T05:09:00.627Z,1.40
2022-08-01T05:09:32.259Z,1.27
2022-08-01T05:10:05.871Z,1.50
2022-08-01T05:10:37.744Z,1.65
2022-08-01T05:11:09.100Z,1.20
2022-08-01T05:11:40.474Z,2.35
2022-08-01T05:12:11.905Z,1.33
2022-08-01T05:12:43.471Z,1.95
2022-08-01T05:13:14.880Z,2.35
2022-08-01T05:13:46.240Z,1.52
2022-08-01T05:14:19.911Z,2.53
2022-08-01T05:14:51.905Z,2.08
2022-08-01T05:15:23.472Z,3.40
2022-08-01T05:15:54.874Z,1.30
2022-08-01T05:16:26.257Z,1.27
2022-08-01T05:16:57.619Z,1.58
2022-08-01T05:17:28.964Z,1.40
2022-08-01T05:18:00.318Z,1.45
2022-08-01T05:18:31.955Z,2.35
2022-08-01T05:19:22.640Z,1.40
2022-08-01T05:19:54.177Z,2.63
2022-08-01T05:20:25.647Z,1.85
2022-08-01T05:21:46.032Z,2.30
2022-08-01T05:22:17.758Z,1.30
2022-08-01T05:22:49.360Z,4.03
2022-08-01T05:23:41.936Z,1.35
2022-08-01T05:24:13.745Z,2.25
2022-08-01T05:24:45.377Z,1.60
2022-08-01T05:25:20.122Z,1.75
2022-08-01T05:25:59.171Z,4.00
2022-08-01T05:26:30.578Z,2.03
2022-08-01T05:27:04.311Z,2.13
2022-08-01T05:27:40.544Z,3.95
2022-08-01T05:28:11.925Z,2.03
2022-08-01T05:28:50.313Z,3.75
2022-08-01T05:29:21.987Z,2.17
2022-08-01T05:30:12.082Z,2.45
2022-08-01T05:30:43.538Z,2.55
2022-08-01T05:31:14.951Z,2.60
2022-08-01T05:31:46.316Z,1.83
2022-08-01T05:32:17.835Z,2.17
2022-08-01T05:32:49.197Z,2.13
2022-08-01T05:33:22.372Z,2.72
2022-08-01T05:33:53.753Z,4.00
2022-08-01T05:34:25.941Z,1.48
2022-08-01T05:34:57.300Z,2.17
2022-08-01T05:35:48.335Z,1.77
2022-08-01T05:36:20.089Z,2.78
2022-08-01T05:36:56.711Z,4.32
2022-08-01T05:37:47.719Z,2.67
2022-08-01T05:38:19.088Z,2.08
2022-08-01T05:38:50.478Z,1.50
2022-08-01T05:39:21.855Z,4.38
2022-08-01T05:39:53.243Z,1.80
2022-08-01T05:40:24.607Z,2.15
2022-08-01T05:40:56.005Z,2.42
2022-08-01T05:41:27.498Z,2.17
2022-08-01T05:41:58.881Z,2.72
2022-08-01T05:42:30.721Z,2.67
2022-08-01T05:43:02.101Z,2.03
2022-08-01T05:43:33.556Z,2.65
2022-08-01T05:44:05.971Z,1.98
2022-08-01T05:44:37.382Z,1.58
2022-08-01T05:45:09.177Z,2.10
2022-08-01T05:45:42.374Z,1.65
2022-08-01T05:46:13.912Z,1.25
2022-08-01T05:46:45.364Z,1.58
2022-08-01T05:47:35.235Z,2.20
2022-08-01T05:48:06.951Z,1.50
2022-08-01T05:48:38.324Z,3.67
2022-08-01T05:49:09.804Z,1.92
2022-08-01T05:50:00.209Z,2.45
2022-08-01T05:50:32.710Z,1.58
2022-08-01T05:51:04.204Z,1.93
2022-08-01T05:51:35.688Z,2.38
2022-08-01T05:52:07.686Z,1.65
2022-08-01T05:52:58.040Z,2.55
2022-08-01T05:53:29.426Z,3.05
2022-08-01T05:54:19.264Z,2.47
2022-08-01T05:54:50.604Z,2.08
2022-08-01T05:55:22.213Z,2.00
2022-08-01T05:55:53.589Z,4.43
2022-08-01T05:56:28.317Z,1.42
2022-08-01T05:57:02.813Z,2.03
2022-08-01T05:57:34.289Z,1.67
2022-08-01T05:58:06.058Z,1.92
2022-08-01T05:58:37.559Z,1.92
2022-08-01T05:59:08.899Z,2.10
2022-08-01T05:59:40.281Z,1.52
2022-08-01T06:00:13.714Z,2.63
2022-08-01T06:00:45.093Z,1.77
2022-08-01T06:01:35.333Z,1.90
2022-08-01T06:02:07.485Z,1.60
2022-08-01T06:03:34.175Z,3.05
2022-08-01T06:04:05.574Z,3.15
2022-08-01T06:04:37.297Z,3.05
2022-08-01T06:05:13.026Z,5.20
2022-08-01T06:05:45.177Z,1.50
2022-08-01T06:06:16.675Z,2.95
2022-08-01T06:06:51.568Z,1.50
2022-08-01T06:07:23.144Z,2.22
2022-08-01T06:07:54.765Z,2.22
2022-08-01T06:08:26.518Z,1.63
2022-08-01T06:08:58.120Z,3.15
2022-08-01T06:09:31.981Z,1.63
2022-08-01T06:10:04.596Z,2.65
2022-08-01T06:11:33.691Z,2.10
2022-08-01T06:12:06.015Z,1.67
2022-08-01T06:12:38.537Z,2.83
2022-08-01T06:13:10.211Z,2.58
2022-08-01T06:13:44.958Z,1.35
2022-08-01T06:15:27.719Z,1.55
2022-08-01T06:16:00.002Z,2.47
2022-08-01T06:17:02.867Z,2.65
2022-08-01T06:17:34.304Z,1.33
2022-08-01T06:18:05.955Z,1.30
2022-08-01T06:18:37.547Z,1.48
2022-08-01T06:19:08.876Z,2.45
2022-08-01T06:19:58.951Z,2.60
2022-08-01T06:20:30.361Z,1.40
2022-08-01T06:21:01.906Z,1.30
2022-08-01T06:21:33.275Z,2.45
2022-08-01T06:22:04.951Z,3.25
2022-08-01T06:22:36.589Z,1.60
2022-08-01T06:23:31.143Z,1.40
2022-08-01T06:24:00.023Z,1.20
2022-08-01T06:24:31.441Z,1.58
2022-08-01T06:25:03.435Z,2.90
2022-08-01T06:25:34.904Z,6.40
2022-08-01T06:26:06.422Z,1.47
2022-08-01T06:26:38.295Z,2.00
2022-08-01T06:27:22.014Z,1.88
2022-08-01T06:28:12.535Z,1.75
2022-08-01T06:28:43.896Z,1.60
2022-08-01T06:29:15.325Z,1.58
2022-08-01T06:29:53.591Z,1.20
2022-08-01T06:31:15.701Z,1.92
2022-08-01T06:31:47.077Z,2.83
2022-08-01T06:32:24.219Z,2.43
2022-08-01T06:32:59.551Z,2.47
2022-08-01T06:33:31.214Z,1.75
2022-08-01T06:34:02.613Z,1.88
2022-08-01T06:34:33.974Z,2.17
2022-08-01T06:35:05.881Z,2.13
2022-08-01T06:35:37.340Z,2.35
2022-08-01T06:36:08.912Z,1.50
2022-08-01T06:36:40.373Z,2.88
2022-08-01T06:37:14.131Z,2.05
2022-08-01T06:37:48.290Z,2.13
2022-08-01T06:38:19.669Z,2.28
2022-08-01T06:39:09.549Z,2.05
2022-08-01T06:39:41.076Z,1.38
2022-08-01T06:40:16.898Z,1.75
2022-08-01T06:40:49.028Z,1.63
2022-08-01T06:41:20.476Z,2.28
2022-08-01T06:41:52.023Z,2.28
2022-08-01T06:42:23.403Z,2.72
2022-08-01T06:42:54.788Z,1.63
2022-08-01T06:43:26.288Z,2.50
2022-08-01T06:43:57.749Z,2.00
2022-08-01T06:44:47.467Z,4.85
2022-08-01T06:45:18.841Z,7.10
2022-08-01T06:45:50.695Z,2.88
2022-08-01T06:46:22.270Z,2.13
2022-08-01T06:46:53.671Z,2.13
2022-08-01T06:47:51.215Z,3.25
2022-08-01T06:48:23.616Z,1.80
2022-08-01T06:49:19.941Z,2.97
2022-08-01T06:49:57.584Z,2.57
2022-08-01T06:50:30.482Z,3.70
2022-08-01T06:51:13.408Z,2.70
2022-08-01T06:52:21.168Z,2.70
2022-08-01T06:53:16.186Z,1.77
2022-08-01T06:54:01.058Z,1.75
2022-08-01T06:55:08.245Z,1.90
2022-08-01T06:56:30.297Z,1.77
2022-08-01T06:57:38.140Z,2.70
2022-08-01T06:59:59.427Z,1.83
2022-08-01T07:00:53.601Z,2.50
2022-08-01T07:02:43.801Z,2.22
2022-08-01T07:03:15.194Z,3.42
2022-08-01T07:04:25.703Z,2.83
2022-08-01T07:06:02.927Z,2.00
2022-08-01T07:07:07.565Z,2.85
2022-08-01T07:07:55.808Z,1.77
2022-08-01T07:08:48.797Z,2.10
2022-08-01T07:09:34.440Z,2.17
2022-08-01T07:10:09.627Z,2.73
2022-08-01T07:10:55.332Z,3.67
2022-08-01T07:12:22.581Z,3.63
2022-08-01T07:12:56.731Z,3.00
2022-08-01T07:13:42.498Z,4.40
2022-08-01T07:14:20.746Z,2.97
2022-08-01T07:14:55.452Z,3.75
2022-08-01T07:15:29.406Z,2.65
2022-08-01T07:16:04.383Z,5.60
2022-08-01T07:16:41.833Z,3.07
2022-08-01T07:17:13.535Z,2.85
2022-08-01T07:17:45.053Z,2.67
2022-08-01T07:18:16.573Z,3.33
2022-08-01T07:19:00.060Z,3.70
2022-08-01T07:19:34.395Z,3.72
2022-08-01T07:20:16.383Z,3.45
2022-08-01T07:20:51.210Z,3.25
2022-08-01T07:21:38.533Z,4.47
2022-08-01T07:22:23.225Z,3.20
2022-08-01T07:22:57.846Z,4.47
2022-08-01T07:23:39.029Z,4.28
2022-08-01T07:24:25.160Z,5.18
2022-08-01T07:25:15.515Z,3.58
2022-08-01T07:26:07.168Z,6.00
2022-08-01T07:27:26.064Z,2.55
2022-08-01T07:28:37.650Z,3.63
2022-08-01T07:31:09.526Z,5.88
2022-08-01T07:32:09.597Z,5.30
2022-08-01T07:34:42.500Z,5.65
2022-08-01T07:35:36.268Z,4.20
2022-08-01T07:36:19.968Z,7.05
2022-08-01T07:36:58.618Z,8.55
2022-08-01T07:37:55.564Z,6.07
2022-08-01T07:39:32.181Z,9.50
2022-08-01T07:40:20.363Z,6.75
2022-08-01T07:40:59.313Z,5.18
2022-08-01T07:42:05.410Z,7.33
2022-08-01T07:42:46.728Z,4.55
2022-08-01T07:43:21.729Z,6.85
2022-08-01T07:44:02.957Z,10.55
2022-08-01T07:44:57.051Z,9.77
2022-08-01T07:45:32.062Z,9.38
2022-08-01T07:46:20.328Z,6.40
2022-08-01T07:47:38.402Z,4.57
2022-08-01T07:49:19.396Z,6.25
2022-08-01T07:50:09.742Z,6.30
2022-08-01T07:50:46.033Z,7.77
2022-08-01T07:51:20.230Z,6.93
2022-08-01T07:52:03.615Z,9.57
2022-08-01T07:52:44.839Z,8.65
2022-08-01T07:53:21.790Z,6.20
2022-08-01T07:53:53.326Z,13.80
2022-08-01T07:54:33.516Z,10.38
2022-08-01T07:55:06.401Z,4.43
2022-08-01T07:55:38.573Z,8.80
2022-08-01T07:56:10.680Z,9.38
2022-08-01T07:56:42.146Z,8.27
2022-08-01T07:57:13.672Z,10.52
2022-08-01T07:57:48.085Z,6.93
2022-08-01T07:59:57.712Z,11.00
2022-08-01T08:01:34.328Z,10.65
2022-08-01T08:02:48.300Z,7.82
2022-08-01T08:06:07.479Z,7.38
2022-08-01T08:10:59.145Z,11.95
2022-08-01T08:11:38.118Z,7.80
2022-08-01T08:12:19.097Z,8.25
2022-08-01T08:13:04.541Z,9.15
2022-08-01T08:13:55.572Z,11.00
2022-08-01T08:14:32.823Z,5.75
2022-08-01T08:15:08.904Z,10.43
2022-08-01T08:16:01.261Z,11.15
2022-08-01T08:16:38.064Z,4.63
2022-08-01T08:17:14.573Z,12.43
2022-08-01T08:17:46.183Z,11.77
2022-08-01T08:18:27.201Z,6.90
2022-08-01T08:19:09.960Z,10.60
2022-08-01T08:19:48.612Z,11.38
2022-08-01T08:20:28.357Z,13.07
2022-08-01T08:21:06.290Z,10.98
2022-08-01T08:21:41.001Z,13.00
2022-08-01T08:22:34.969Z,10.63
2022-08-01T08:23:43.276Z,11.63
2022-08-01T08:24:26.654Z,8.07
2022-08-01T08:25:07.764Z,11.45
2022-08-01T08:25:40.525Z,11.45
2022-08-01T08:26:12.535Z,7.40
2022-08-01T08:26:55.421Z,8.48
2022-08-01T08:27:29.482Z,10.77
2022-08-01T08:28:01.045Z,7.57
2022-08-01T08:28:32.540Z,8.55
2022-08-01T08:29:04.186Z,8.02
2022-08-01T08:30:25.073Z,9.83
2022-08-01T08:30:56.476Z,8.57
2022-08-01T08:31:51.977Z,11.60
2022-08-01T08:32:21.905Z,10.55
2022-08-01T08:32:53.288Z,8.60
2022-08-01T08:33:24.643Z,13.48
2022-08-01T08:33:56.060Z,6.72
2022-08-01T08:34:29.235Z,13.05
2022-08-01T08:35:00.775Z,11.32
2022-08-01T08:35:40.345Z,22.10
2022-08-01T08:36:31.189Z,9.93
2022-08-01T08:37:03.226Z,13.55
2022-08-01T08:37:37.911Z,9.98
2022-08-01T08:38:14.223Z,9.82
2022-08-01T08:39:05.078Z,11.30
2022-08-01T08:39:41.265Z,7.20
2022-08-01T08:40:13.807Z,9.70
2022-08-01T08:40:45.411Z,12.23
2022-08-01T08:41:21.003Z,10.43
2022-08-01T08:41:52.887Z,11.82
2022-08-01T08:42:24.391Z,8.37
2022-08-01T08:43:46.122Z,10.00
2022-08-01T08:44:18.846Z,10.35
2022-08-01T08:44:50.441Z,12.50
2022-08-01T08:45:22.032Z,8.38
2022-08-01T08:46:15.405Z,10.90
2022-08-01T08:46:49.654Z,8.30
2022-08-01T08:47:22.592Z,12.38
2022-08-01T08:47:55.629Z,10.60
2022-08-01T08:48:27.957Z,8.17
2022-08-01T08:49:01.903Z,7.45
2022-08-01T08:49:36.164Z,12.75
2022-08-01T08:50:08.350Z,9.85
2022-08-01T08:50:41.941Z,10.57
2022-08-01T08:51:14.350Z,12.00